»·PEaware :: N515ZT KSJC-KFAT

N515ZT :: KSJC-KFAT

FLIGHT INFORMATION

Flight Status: Arrived
Operator: Privately registered:
United States
More flights under this callsign
Pilot: Marty P. (27464)
Aircraft: BEECH AIRCRAFT BARON
(BE58)
More flights by this aircraft type
Origin: KSJC Mineta San Jose Intl
United States
Destination: KFAT Fresno Yosemite Intl
United States
More flights between these airports :: More routes between these airports
Route: LICKE YEKUT SANGO STORI
File this flight plan on PilotEdge
Remarks: Req. practice ILS runway 29R approach
Altitude:
(Current/Filed)
13,500ft
Speed:
(Current/Filed)
200kts
Departed: 13-Feb-20 08:04 PM
Arrived: 13-Feb-20 09:01 PM
Distance/Time
Traveled:
111nm/0:57
Distance/Time
To Go:
Arrived

Flight Plot

Page will automatically refresh every two minutes.

Flight plan parsing failed; only flown route is shown


Map Options




Map Legend


Flown Route
Filed Route
Departure Airport
Arrival Airport
Navaid (VOR, NDB)
Fix

Horizontal Profiles

Position Reports

Time Latitude Longitude Heading Altitude Ground
Speed
13-Feb-20 19:51 37.354007 -121.923291 229 63ft 0kts
13-Feb-20 19:52 37.354007 -121.923291 229 63ft 0kts
13-Feb-20 19:53 37.354007 -121.923291 229 63ft 0kts
13-Feb-20 19:54 37.354007 -121.923291 229 63ft 0kts
13-Feb-20 19:55 37.354007 -121.923291 229 63ft 0kts
13-Feb-20 19:56 37.354007 -121.923291 229 63ft 0kts
13-Feb-20 19:57 37.354007 -121.923291 229 63ft 0kts
13-Feb-20 19:58 37.354007 -121.923291 229 63ft 0kts
13-Feb-20 19:59 37.354084 -121.923595 327 63ft 7kts
13-Feb-20 20:00 37.353012 -121.921251 138 63ft 20kts
13-Feb-20 20:01 37.352065 -121.919929 77 63ft 0kts
13-Feb-20 20:02 37.352992 -121.919254 320 63ft 15kts
13-Feb-20 20:03 37.365202 -121.933091 317 294ft 125kts
13-Feb-20 20:04 37.374210 -121.966911 228 1486ft 114kts
13-Feb-20 20:05 37.345431 -121.955093 133 2738ft 139kts
13-Feb-20 20:06 37.324614 -121.923074 132 3968ft 136kts
13-Feb-20 20:07 37.300620 -121.886524 132 4985ft 161kts
13-Feb-20 20:08 37.276314 -121.836176 121 5952ft 167kts
13-Feb-20 20:09 37.242065 -121.791540 138 7054ft 166kts
13-Feb-20 20:10 37.201708 -121.745605 138 8215ft 166kts
13-Feb-20 20:11 37.168558 -121.707958 138 9104ft 164kts
13-Feb-20 20:12 37.147003 -121.658138 112 9915ft 164kts
13-Feb-20 20:13 37.130042 -121.605921 112 10816ft 155kts
13-Feb-20 20:14 37.113936 -121.556298 112 11804ft 154kts
13-Feb-20 20:15 37.097750 -121.506511 112 12709ft 153kts
13-Feb-20 20:16 37.081738 -121.457396 112 13535ft 152kts
13-Feb-20 20:17 37.063353 -121.401153 112 13515ft 189kts
13-Feb-20 20:18 37.043446 -121.340262 113 13510ft 198kts
13-Feb-20 20:19 37.022518 -121.276411 113 13509ft 199kts
13-Feb-20 20:20 37.001750 -121.213189 113 13509ft 199kts
13-Feb-20 20:21 36.980931 -121.149954 113 13507ft 199kts
13-Feb-20 20:22 36.959958 -121.086382 113 13508ft 199kts
13-Feb-20 20:23 36.938924 -121.022763 113 13509ft 199kts
13-Feb-20 20:24 36.917969 -120.959522 113 13509ft 199kts
13-Feb-20 20:25 36.897284 -120.897228 113 13495ft 199kts
13-Feb-20 20:26 36.875974 -120.833195 113 13478ft 199kts
13-Feb-20 20:27 36.854640 -120.769224 113 13461ft 200kts
13-Feb-20 20:28 36.833196 -120.705073 113 13441ft 200kts
13-Feb-20 20:29 36.810871 -120.638443 113 12998ft 213kts
13-Feb-20 20:30 36.787793 -120.569685 113 12537ft 217kts
13-Feb-20 20:31 36.764288 -120.499829 113 12020ft 219kts
13-Feb-20 20:32 36.740640 -120.429728 113 11524ft 218kts
13-Feb-20 20:33 36.717110 -120.360150 113 11045ft 217kts
13-Feb-20 20:34 36.694532 -120.293511 114 10593ft 217kts
13-Feb-20 20:35 36.670940 -120.224073 114 9992ft 220kts
13-Feb-20 20:36 36.646665 -120.152777 114 8843ft 224kts
13-Feb-20 20:37 36.623537 -120.084932 114 7821ft 207kts
13-Feb-20 20:38 36.608242 -120.016715 102 6820ft 203kts
13-Feb-20 20:39 36.596987 -119.948796 102 5851ft 201kts
13-Feb-20 20:40 36.584965 -119.881971 103 4889ft 195kts
13-Feb-20 20:41 36.573176 -119.816824 103 3957ft 189kts
13-Feb-20 20:42 36.561860 -119.754326 103 4002ft 185kts
13-Feb-20 20:43 36.550504 -119.691835 103 3999ft 185kts
13-Feb-20 20:44 36.550477 -119.629991 55 3996ft 187kts
13-Feb-20 20:45 36.582296 -119.579119 52 3996ft 187kts
13-Feb-20 20:46 36.614199 -119.528599 51 3993ft 187kts
13-Feb-20 20:47 36.646363 -119.477636 52 3993ft 187kts
13-Feb-20 20:48 36.677637 -119.426406 52 3993ft 187kts
13-Feb-20 20:49 36.708955 -119.375156 52 3993ft 187kts
13-Feb-20 20:50 36.752246 -119.354549 334 3984ft 174kts
13-Feb-20 20:51 36.761163 -119.398150 235 3996ft 134kts
13-Feb-20 20:52 36.740638 -119.435521 234 3993ft 130kts
13-Feb-20 20:53 36.720099 -119.472352 234 3993ft 130kts
13-Feb-20 20:54 36.698339 -119.513607 251 3019ft 151kts
13-Feb-20 20:55 36.697809 -119.565478 272 1956ft 142kts
13-Feb-20 20:56 36.711134 -119.603321 307 2000ft 119kts
13-Feb-20 20:57 36.732462 -119.639914 307 1616ft 144kts
13-Feb-20 20:58 36.753533 -119.676775 306 902ft 105kts
13-Feb-20 20:59 36.767872 -119.701815 306 439ft 93kts
13-Feb-20 21:00 36.775961 -119.716135 293 335ft 26kts
13-Feb-20 21:01 36.775433 -119.720701 154 335ft 16kts
13-Feb-20 21:02 36.773637 -119.721887 315 335ft 6kts
13-Feb-20 21:03 36.773712 -119.721887 33 335ft 0kts

Navigation Log

Ident Type
Flight plan parsing failed, navigation log unavailable